Time;durP1;ratioP1;P1;durP2;ratioP2;P2;SDS_P1;SDS_P2;PMS_P1;PMS_P2;Temp;Humidity;BMP_temperature;BMP_pressure;BME280_temperature;BME280_humidity;BME280_pressure;Samples;Min_cycle;Max_cycle;Signal;HPM_P1;HPM_P2
2021/03/05 00:04:35;;;;;;;10.90;4.97;;;7.50;56.60;;;;;;4880286;29;20048;-84
2021/03/05 00:10:27;;;;;;;13.63;5.70;;;7.50;57.30;;;;;;4880382;29;20496;-84
2021/03/05 00:16:15;;;;;;;11.02;5.25;;;7.50;58.00;;;;;;4879414;29;20097;-83
2021/03/05 00:22:05;;;;;;;12.10;5.47;;;7.50;58.50;;;;;;4880324;29;20048;-85
2021/03/05 00:27:54;;;;;;;17.67;6.50;;;7.50;59.10;;;;;;4880230;29;20032;-84
2021/03/05 00:33:42;;;;;;;15.07;6.97;;;7.60;60.00;;;;;;4879919;29;20080;-84
2021/03/05 00:39:33;;;;;;;16.42;6.95;;;7.50;60.40;;;;;;4880038;29;20081;-83
2021/03/05 00:45:24;;;;;;;15.68;7.10;;;7.50;61.10;;;;;;4879828;29;20046;-83
2021/03/05 00:55:14;;;;;;;13.88;6.35;;;7.40;61.90;;;;;;4879990;29;20044;-83
2021/03/05 01:01:04;;;;;;;14.50;6.70;;;7.10;62.40;;;;;;4879918;29;20068;-84
2021/03/05 01:06:52;;;;;;;13.30;6.43;;;7.00;63.00;;;;;;4879870;29;20072;-84
2021/03/05 01:12:41;;;;;;;13.07;6.18;;;6.90;63.80;;;;;;4879816;29;20101;-84
2021/03/05 01:18:29;;;;;;;12.60;6.00;;;6.80;64.40;;;;;;4879675;29;20092;-84
2021/03/05 01:24:18;;;;;;;15.23;7.80;;;6.80;65.10;;;;;;4879384;29;20052;-87
2021/03/05 01:30:08;;;;;;;15.43;8.10;;;6.70;65.50;;;;;;4883116;29;20096;-85
2021/03/05 01:35:56;;;;;;;15.57;6.88;;;6.60;66.20;;;;;;4882911;29;20044;-85
2021/03/05 01:41:45;;;;;;;14.45;7.25;;;6.60;66.90;;;;;;4882920;29;20051;-84
2021/03/05 01:47:33;;;;;;;13.25;6.35;;;6.50;67.10;;;;;;4882809;29;20044;-85
2021/03/05 01:57:16;;;;;;;10.38;5.40;;;6.50;68.40;;;;;;4882709;29;20051;-84
2021/03/05 02:03:05;;;;;;;14.98;7.15;;;6.40;68.60;;;;;;4882409;29;20085;-84
2021/03/05 02:08:54;;;;;;;13.35;6.18;;;6.30;68.70;;;;;;4882287;29;20036;-84
2021/03/05 02:14:43;;;;;;;14.15;7.35;;;6.20;69.40;;;;;;4882139;29;20036;-85
2021/03/05 02:20:35;;;;;;;11.98;5.55;;;6.10;69.80;;;;;;4882318;29;20100;-85
2021/03/05 02:26:54;;;;;;;13.38;6.00;;;6.00;70.20;;;;;;4882471;29;20052;-84
2021/03/05 02:32:54;;;;;;;10.48;4.68;;;5.90;70.50;;;;;;4881778;29;20032;-84
2021/03/05 02:38:55;;;;;;;5.93;2.75;;;5.80;70.90;;;;;;4881298;29;20092;-86
2021/03/05 02:45:04;;;;;;;10.73;5.30;;;5.60;71.10;;;;;;4881704;29;20432;-84
2021/03/05 02:50:58;;;;;;;9.65;4.28;;;5.50;71.70;;;;;;4881836;29;20206;-84
2021/03/05 02:53:26;;;;;;;10.63;4.43;;;5.40;71.60;;;;;;4864447;29;20128;-84
2021/03/05 02:59:17;;;;;;;11.43;4.63;;;5.40;72.10;;;;;;4881480;29;20394;-84
2021/03/05 03:05:09;;;;;;;4.45;1.83;;;5.30;72.50;;;;;;4881126;29;20047;-84
2021/03/05 03:11:01;;;;;;;10.55;3.75;;;5.10;72.10;;;;;;4881449;29;20044;-85
2021/03/05 03:16:50;;;;;;;8.93;3.85;;;4.80;72.20;;;;;;4881174;29;20048;-85
2021/03/05 03:22:40;;;;;;;9.90;3.88;;;4.60;73.50;;;;;;4881084;29;20072;-85
2021/03/05 03:28:28;;;;;;;9.43;3.40;;;4.50;73.60;;;;;;4881189;29;20093;-85
2021/03/05 03:34:19;;;;;;;7.28;3.15;;;4.50;74.00;;;;;;4880731;29;20085;-86
2021/03/05 03:40:13;;;;;;;8.77;3.63;;;4.40;74.50;;;;;;4880850;29;20037;-86
2021/03/05 03:46:02;;;;;;;9.98;4.53;;;4.40;74.70;;;;;;4880360;29;20061;-84
2021/03/05 03:51:58;;;;;;;9.10;4.10;;;4.40;75.10;;;;;;4879969;29;20027;-85
2021/03/05 03:57:51;;;;;;;9.05;3.70;;;4.30;75.20;;;;;;4880363;29;20080;-86
2021/03/05 04:03:43;;;;;;;6.35;2.97;;;4.20;75.30;;;;;;4880460;29;20040;-84
2021/03/05 04:09:35;;;;;;;10.65;4.13;;;4.20;75.60;;;;;;4880145;29;20092;-85
2021/03/05 04:15:24;;;;;;;9.75;4.00;;;4.20;76.10;;;;;;4880064;29;20040;-84
2021/03/05 04:21:28;;;;;;;12.00;4.30;;;4.10;75.90;;;;;;4880014;29;20104;-84
2021/03/05 04:27:17;;;;;;;13.38;5.35;;;4.10;76.40;;;;;;4880190;29;20598;-84
2021/03/05 04:33:06;;;;;;;11.50;4.63;;;4.10;76.70;;;;;;4880119;29;20120;-86
2021/03/05 04:38:54;;;;;;;12.25;4.88;;;4.10;76.90;;;;;;4880156;29;20048;-85
2021/03/05 04:44:42;;;;;;;10.32;3.33;;;4.10;77.20;;;;;;4880089;29;20152;-85
2021/03/05 04:50:31;;;;;;;9.82;3.80;;;4.10;77.20;;;;;;4880066;29;20096;-85
2021/03/05 05:00:23;;;;;;;11.15;4.03;;;4.00;77.30;;;;;;4880071;29;20052;-86
2021/03/05 05:06:12;;;;;;;10.90;4.35;;;3.90;77.70;;;;;;4883153;29;20044;-86
2021/03/05 05:12:02;;;;;;;11.20;4.10;;;3.90;78.00;;;;;;4882969;29;20037;-84
2021/03/05 05:17:50;;;;;;;11.68;4.18;;;3.80;78.20;;;;;;4883323;29;20097;-85
2021/03/05 05:23:39;;;;;;;11.38;4.55;;;3.80;78.50;;;;;;4883200;29;20036;-87
2021/03/05 05:29:27;;;;;;;10.88;4.18;;;3.80;78.70;;;;;;4882875;29;20032;-86
2021/03/05 05:35:16;;;;;;;6.85;2.70;;;3.80;78.80;;;;;;4883184;29;20064;-88
2021/03/05 05:41:04;;;;;;;17.60;8.65;;;3.80;78.80;;;;;;4882798;29;20040;-86
2021/03/05 05:46:56;;;;;;;10.23;4.00;;;3.80;79.00;;;;;;4882960;29;20148;-86
2021/03/05 05:52:46;;;;;;;10.65;4.10;;;3.80;79.10;;;;;;4882846;29;20081;-86
2021/03/05 06:02:40;;;;;;;11.40;4.30;;;3.70;79.50;;;;;;4882534;29;20102;-87
2021/03/05 06:08:29;;;;;;;9.80;3.45;;;3.60;79.40;;;;;;4882443;29;20081;-86
2021/03/05 06:14:20;;;;;;;11.48;3.78;;;3.60;79.90;;;;;;4881313;29;20067;-86
2021/03/05 06:20:10;;;;;;;10.45;4.30;;;3.70;80.40;;;;;;4881920;29;20120;-86
2021/03/05 06:25:59;;;;;;;11.25;4.85;;;3.80;80.30;;;;;;4881770;29;20501;-81
2021/03/05 06:31:59;;;;;;;14.05;4.90;;;3.90;80.80;;;;;;4882014;29;20089;-79
2021/03/05 06:37:48;;;;;;;12.88;5.20;;;3.90;80.70;;;;;;4881855;29;20052;-80
2021/03/05 06:43:47;;;;;;;9.88;3.38;;;4.00;81.00;;;;;;4881800;29;20108;-78
2021/03/05 06:49:36;;;;;;;13.32;4.80;;;4.10;81.40;;;;;;4881329;29;20124;-82
2021/03/05 06:55:25;;;;;;;12.30;4.75;;;4.20;81.00;;;;;;4881404;29;20462;-82
2021/03/05 07:05:17;;;;;;;9.60;3.90;;;4.30;81.50;;;;;;4880998;29;20085;-82
2021/03/05 07:11:09;;;;;;;9.77;4.20;;;4.40;81.80;;;;;;4881160;29;20168;-82
2021/03/05 07:17:02;;;;;;;12.45;5.03;;;4.50;82.00;;;;;;4880761;29;20039;-82
2021/03/05 07:23:11;;;;;;;;;;;;;;;;;;;;;
2021/03/05 07:29:29;;;;;;;11.02;4.50;;;4.70;82.40;;;;;;4841819;29;20033;-84
2021/03/05 07:35:36;;;;;;;9.73;4.18;;;4.90;82.70;;;;;;4880673;29;20031;-83
2021/03/05 07:41:26;;;;;;;11.73;4.57;;;5.10;82.60;;;;;;4880321;29;20073;-83
2021/03/05 07:47:16;;;;;;;11.90;4.80;;;5.10;82.60;;;;;;4880521;29;20140;-83
2021/03/05 07:53:05;;;;;;;11.10;4.80;;;5.10;82.90;;;;;;4880426;29;20043;-82
2021/03/05 07:59:42;;;;;;;12.93;5.00;;;5.30;83.40;;;;;;4881367;29;20067;-84
2021/03/05 08:05:50;;;;;;;15.65;6.13;;;5.50;83.50;;;;;;4787184;29;20052;-83
2021/03/05 08:11:42;;;;;;;12.05;4.80;;;5.70;83.80;;;;;;4841083;29;20125;-83
2021/03/05 08:17:38;;;;;;;11.27;5.15;;;5.70;83.00;;;;;;4841048;29;20074;-84
2021/03/05 08:23:26;;;;;;;12.15;5.28;;;5.60;82.70;;;;;;4841205;29;20438;-86
2021/03/05 08:30:01;;;;;;;11.77;5.38;;;5.50;83.60;;;;;;4841090;29;20078;-86
2021/03/05 08:35:52;;;;;;;12.45;5.18;;;5.80;84.20;;;;;;4841014;29;20056;-85
2021/03/05 08:41:43;;;;;;;11.30;5.25;;;5.70;83.40;;;;;;4883799;29;20043;-84
2021/03/05 08:47:36;;;;;;;14.80;5.88;;;5.60;83.60;;;;;;4883774;29;20133;-84
2021/03/05 08:53:55;;;;;;;15.68;5.32;;;5.60;84.10;;;;;;4883668;29;20187;-85
2021/03/05 08:59:47;;;;;;;12.85;5.15;;;5.70;84.70;;;;;;4883721;29;20439;-85
2021/03/05 09:05:53;;;;;;;12.73;5.50;;;5.80;83.80;;;;;;4882916;29;20092;-84
2021/03/05 09:11:42;;;;;;;11.30;5.22;;;5.80;84.90;;;;;;4883174;29;20617;-86
2021/03/05 09:17:33;;;;;;;13.88;5.25;;;6.00;85.10;;;;;;4882957;29;20040;-87
2021/03/05 09:36:56;;;;;;;;;;;;;;;;;;;;;
2021/03/05 09:43:29;;;;;;;12.52;4.97;;;5.80;84.40;;;;;;4737644;29;20070;-86
2021/03/05 09:49:57;;;;;;;15.02;5.90;;;6.00;85.50;;;;;;4731166;29;20055;-85
2021/03/05 09:59:43;;;;;;;12.85;4.97;;;6.80;88.00;;;;;;4860194;29;20139;-86
2021/03/05 10:05:36;;;;;;;12.98;5.07;;;7.30;86.40;;;;;;4810949;29;20065;-87
2021/03/05 10:11:41;;;;;;;9.02;3.72;;;7.60;85.80;;;;;;4882152;29;20040;-87
2021/03/05 10:17:39;;;;;;;12.55;4.60;;;7.40;85.50;;;;;;4882150;29;20043;-84
2021/03/05 10:23:28;;;;;;;11.18;4.57;;;7.60;86.00;;;;;;4881730;29;20394;-84
2021/03/05 10:29:20;;;;;;;12.38;4.47;;;7.60;86.60;;;;;;4881656;29;20145;-84
2021/03/05 10:35:15;;;;;;;9.52;4.13;;;7.60;86.20;;;;;;4881781;29;20044;-87
2021/03/05 10:41:07;;;;;;;12.25;4.50;;;7.70;86.80;;;;;;4881410;29;20089;-84
2021/03/05 10:47:16;;;;;;;11.27;4.35;;;7.80;86.60;;;;;;4882081;29;20083;-85
2021/03/05 10:53:04;;;;;;;10.25;4.45;;;7.90;87.30;;;;;;4881518;29;20036;-85
2021/03/05 10:58:54;;;;;;;9.82;4.63;;;8.00;87.50;;;;;;4880953;29;20148;-89
2021/03/05 11:04:44;;;;;;;10.63;4.30;;;8.10;86.30;;;;;;4881181;29;20105;-90
2021/03/05 11:10:33;;;;;;;9.30;3.58;;;7.70;85.60;;;;;;4882019;29;20040;-93
2021/03/05 11:16:22;;;;;;;6.78;3.08;;;7.00;83.40;;;;;;4881192;29;20448;-87
2021/03/05 11:22:11;;;;;;;9.70;4.20;;;6.40;84.80;;;;;;4880764;29;20044;-88
2021/03/05 11:28:00;;;;;;;8.30;3.53;;;6.20;85.90;;;;;;4881345;29;20068;-88
2021/03/05 11:33:58;;;;;;;9.65;3.47;;;6.20;86.60;;;;;;4881498;29;20097;-91
2021/03/05 11:39:46;;;;;;;10.70;3.80;;;6.40;87.80;;;;;;4881005;29;20032;-91
2021/03/05 11:45:35;;;;;;;11.98;5.20;;;6.80;87.30;;;;;;4881085;29;20420;-89
2021/03/05 11:51:24;;;;;;;12.73;4.18;;;7.00;88.50;;;;;;4880731;29;20040;-91
2021/03/05 11:57:13;;;;;;;8.52;3.15;;;7.50;89.10;;;;;;4880368;29;20052;-88
2021/03/05 12:03:04;;;;;;;7.28;2.80;;;8.20;89.70;;;;;;4881147;29;20142;-88
2021/03/05 12:12:54;;;;;;;6.00;2.50;;;9.60;88.70;;;;;;4880721;29;20087;-88
2021/03/05 12:18:42;;;;;;;6.65;2.80;;;9.90;87.60;;;;;;4888183;29;20044;-88
2021/03/05 12:25:00;;;;;;;7.05;2.65;;;10.10;88.00;;;;;;4880402;29;20044;-88
2021/03/05 12:37:24;;;;;;;7.05;2.50;;;9.70;83.80;;;;;;4808060;29;20004;-87
2021/03/05 13:00:20;;;;;;;;;;;;;;;;;;;;;
2021/03/05 13:06:14;;;;;;;6.80;2.65;;;11.50;88.30;;;;;;4822775;29;20098;-90
2021/03/05 13:16:16;;;;;;;6.03;2.63;;;12.40;85.80;;;;;;4822468;29;20090;-87
2021/03/05 13:22:30;;;;;;;6.18;2.75;;;11.80;82.80;;;;;;4822466;29;20127;-93
2021/03/05 13:28:18;;;;;;;6.55;2.83;;;11.00;84.10;;;;;;4825546;29;20147;-86
2021/03/05 13:34:07;;;;;;;5.85;2.88;;;10.90;84.50;;;;;;4882832;29;20385;-87
2021/03/05 13:39:57;;;;;;;6.95;2.80;;;10.90;84.00;;;;;;4882909;29;20032;-88
2021/03/05 13:45:45;;;;;;;7.15;2.53;;;10.80;82.70;;;;;;4882740;29;20048;-87
2021/03/05 13:51:33;;;;;;;6.05;2.80;;;10.30;83.10;;;;;;4882533;29;20039;-86
2021/03/05 13:57:22;;;;;;;7.78;2.88;;;9.60;82.40;;;;;;4883229;29;20073;-87
2021/03/05 14:10:29;;;;;;;;;;;;;;;;;;;;;
2021/03/05 14:20:33;;;;;;;7.82;3.10;;;8.40;84.20;;;;;;4882255;29;20406;-86
2021/03/05 14:26:27;;;;;;;7.05;3.00;;;8.00;83.20;;;;;;4881720;29;20497;-88
2021/03/05 14:32:16;;;;;;;7.93;3.67;;;8.30;85.60;;;;;;4881724;29;20385;-84
2021/03/05 14:38:04;;;;;;;7.90;3.13;;;8.70;85.60;;;;;;4881725;29;20043;-84
2021/03/05 14:43:53;;;;;;;7.68;3.55;;;9.70;88.80;;;;;;4882410;29;20039;-85
2021/03/05 14:49:41;;;;;;;7.82;3.53;;;11.40;87.70;;;;;;4882179;29;20032;-84
2021/03/05 14:55:29;;;;;;;7.00;2.95;;;11.10;82.50;;;;;;4881587;29;20172;-84
2021/03/05 15:01:18;;;;;;;6.93;3.10;;;10.90;81.40;;;;;;4881366;29;20113;-85
2021/03/05 15:07:07;;;;;;;9.70;3.33;;;10.20;80.60;;;;;;4881369;29;20095;-86
2021/03/05 15:12:56;;;;;;;7.07;3.13;;;9.60;80.80;;;;;;4881353;29;20040;-83
2021/03/05 15:22:46;;;;;;;7.97;3.35;;;9.10;82.10;;;;;;4881020;29;20044;-85
2021/03/05 15:28:34;;;;;;;7.05;3.00;;;8.60;80.40;;;;;;4880746;29;20394;-86
2021/03/05 15:34:23;;;;;;;5.80;2.70;;;8.30;81.40;;;;;;4880440;29;20078;-83
2021/03/05 15:40:14;;;;;;;5.40;2.60;;;8.20;82.00;;;;;;4880808;29;20177;-86
2021/03/05 15:46:02;;;;;;;6.32;2.60;;;8.20;82.20;;;;;;4880146;29;20131;-84
2021/03/05 15:51:51;;;;;;;6.57;2.88;;;8.20;81.80;;;;;;4880556;29;20040;-84
2021/03/05 15:57:40;;;;;;;6.18;2.85;;;7.90;81.70;;;;;;4880333;29;20036;-85
2021/03/05 16:03:29;;;;;;;6.95;2.50;;;7.70;81.50;;;;;;4880239;29;20036;-87
2021/03/05 16:09:17;;;;;;;7.00;2.97;;;7.30;80.70;;;;;;4880210;29;20071;-87
2021/03/05 16:15:07;;;;;;;7.68;3.00;;;6.80;80.60;;;;;;4880431;29;20097;-87
2021/03/05 16:24:50;;;;;;;6.15;2.35;;;6.50;81.50;;;;;;4880343;29;20052;-84
2021/03/05 16:30:38;;;;;;;16.17;5.50;;;6.40;81.50;;;;;;4880113;29;20092;-85
2021/03/05 16:36:27;;;;;;;7.45;2.78;;;6.00;80.60;;;;;;4880226;29;20033;-86
2021/03/05 16:42:15;;;;;;;6.00;2.10;;;5.60;80.40;;;;;;4879952;29;20040;-84
2021/03/05 16:48:05;;;;;;;8.25;2.53;;;5.20;80.80;;;;;;4880277;29;20123;-86
2021/03/05 16:53:55;;;;;;;4.05;2.00;;;4.90;80.90;;;;;;4880113;29;20093;-86
2021/03/05 16:59:43;;;;;;;6.40;2.65;;;4.60;80.90;;;;;;4883987;29;20133;-86
2021/03/05 17:05:32;;;;;;;5.80;1.90;;;4.30;81.20;;;;;;4883605;29;20099;-85
2021/03/05 17:11:20;;;;;;;4.95;2.20;;;4.00;81.50;;;;;;4886391;29;20447;-86
2021/03/05 17:17:10;;;;;;;4.47;1.95;;;3.70;81.40;;;;;;4885232;29;20048;-89
2021/03/05 17:26:52;;;;;;;5.50;2.40;;;3.40;81.50;;;;;;4883414;29;20071;-88
2021/03/05 17:32:41;;;;;;;5.57;2.17;;;3.20;81.90;;;;;;4883393;29;20414;-88
2021/03/05 17:38:29;;;;;;;8.15;3.63;;;3.00;81.90;;;;;;4883130;29;20073;-88
2021/03/05 17:44:18;;;;;;;5.32;2.22;;;2.80;82.00;;;;;;4882892;29;20035;-88
2021/03/05 17:50:07;;;;;;;4.15;1.95;;;2.60;82.20;;;;;;4882872;29;20497;-88
2021/03/05 17:55:56;;;;;;;5.10;2.20;;;2.40;82.30;;;;;;4882516;29;20040;-86
2021/03/05 18:01:44;;;;;;;7.05;2.40;;;2.20;82.30;;;;;;4882608;29;20103;-87
2021/03/05 18:07:32;;;;;;;10.30;4.13;;;2.00;82.30;;;;;;4882269;29;20446;-89
2021/03/05 18:13:21;;;;;;;6.70;2.92;;;1.90;82.50;;;;;;4882557;29;20032;-88
2021/03/05 18:19:09;;;;;;;6.97;2.85;;;1.70;82.50;;;;;;4882377;29;20073;-89
2021/03/05 18:28:51;;;;;;;7.78;3.22;;;1.50;82.60;;;;;;4882296;29;20068;-88
2021/03/05 18:34:40;;;;;;;14.48;4.07;;;1.30;82.80;;;;;;4881976;29;20040;-88
2021/03/05 18:40:28;;;;;;;12.48;4.38;;;1.10;82.80;;;;;;4882093;29;20486;-89
2021/03/05 18:46:18;;;;;;;11.75;4.85;;;1.00;82.90;;;;;;4881569;29;20413;-86
2021/03/05 18:52:07;;;;;;;7.82;2.78;;;0.90;83.00;;;;;;4882404;29;20484;-87
2021/03/05 18:57:55;;;;;;;7.82;2.95;;;0.70;82.90;;;;;;4881571;29;20047;-88
2021/03/05 19:03:44;;;;;;;7.03;2.65;;;0.60;83.10;;;;;;4881396;29;20524;-88
2021/03/05 19:09:32;;;;;;;6.47;2.63;;;0.50;83.10;;;;;;4881479;29;20397;-89
2021/03/05 19:15:21;;;;;;;7.10;2.53;;;0.30;83.20;;;;;;4881334;29;20048;-88
2021/03/05 19:21:09;;;;;;;7.28;3.13;;;0.30;83.30;;;;;;4880698;29;20044;-87
2021/03/05 19:30:53;;;;;;;10.32;3.97;;;0.10;83.30;;;;;;4881807;29;20519;-90
2021/03/05 19:36:42;;;;;;;12.98;4.60;;;-0.10;83.20;;;;;;4881088;29;20121;-89
2021/03/05 19:42:29;;;;;;;10.52;4.22;;;-0.20;83.30;;;;;;4881656;29;20065;-88
2021/03/05 19:48:17;;;;;;;6.63;2.95;;;-0.30;83.40;;;;;;4880859;29;20032;-89
2021/03/05 19:54:06;;;;;;;5.03;2.47;;;-0.50;83.20;;;;;;4880939;29;20544;-88
2021/03/05 19:59:54;;;;;;;6.47;2.60;;;-0.60;83.40;;;;;;4881365;29;20040;-88
2021/03/05 20:05:43;;;;;;;7.45;3.10;;;-0.70;83.40;;;;;;4880875;29;20051;-87
2021/03/05 20:11:32;;;;;;;9.70;3.03;;;-0.80;83.60;;;;;;4881427;29;20033;-88
2021/03/05 20:17:21;;;;;;;8.52;3.08;;;-0.90;83.60;;;;;;4880820;29;20508;-88
2021/03/05 20:23:08;;;;;;;6.88;3.10;;;-1.00;84.40;;;;;;4880340;29;20072;-86
2021/03/05 20:32:52;;;;;;;7.20;2.80;;;-1.00;83.60;;;;;;4879481;29;20215;-85
2021/03/05 20:38:40;;;;;;;8.35;3.53;;;-1.20;83.50;;;;;;4880193;29;20073;-86
2021/03/05 20:44:29;;;;;;;10.38;3.90;;;-1.30;83.50;;;;;;4880131;29;20389;-86
2021/03/05 20:50:17;;;;;;;10.05;3.80;;;-1.50;83.50;;;;;;4880073;29;20100;-86
2021/03/05 20:56:06;;;;;;;12.20;4.20;;;-1.60;83.50;;;;;;4879685;29;20032;-85
2021/03/05 21:01:54;;;;;;;10.30;4.25;;;-1.70;83.50;;;;;;4879596;29;20113;-84
2021/03/05 21:07:44;;;;;;;8.90;3.65;;;-1.80;83.70;;;;;;4879871;29;20192;-85
2021/03/05 21:13:33;;;;;;;13.93;4.30;;;-1.80;83.90;;;;;;4880112;29;20112;-87
2021/03/05 21:19:21;;;;;;;11.10;4.63;;;-1.90;83.80;;;;;;4881132;29;20032;-86
2021/03/05 21:25:10;;;;;;;13.07;4.25;;;-2.00;83.70;;;;;;4880361;29;20052;-86
2021/03/05 21:34:55;;;;;;;8.55;3.90;;;-2.10;83.90;;;;;;4879908;29;20056;-86
2021/03/05 21:40:49;;;;;;;7.43;3.47;;;-2.20;83.90;;;;;;4879984;29;20093;-87
2021/03/05 21:46:41;;;;;;;8.45;3.80;;;-2.30;83.80;;;;;;4884128;29;20119;-90
2021/03/05 21:52:30;;;;;;;9.38;3.80;;;-2.40;83.90;;;;;;4885707;29;20132;-92
2021/03/05 21:58:22;;;;;;;8.65;3.78;;;-2.40;84.10;;;;;;4884733;29;20505;-90
2021/03/05 22:04:13;;;;;;;7.97;3.80;;;-2.50;83.90;;;;;;4887884;29;20431;-92
2021/03/05 22:10:06;;;;;;;10.05;4.03;;;-2.60;83.90;;;;;;4883290;29;20036;-88
2021/03/05 22:15:54;;;;;;;10.80;4.22;;;-2.70;83.90;;;;;;4883034;29;20042;-87
2021/03/05 22:21:42;;;;;;;8.50;3.67;;;-2.80;83.90;;;;;;4882901;29;20048;-89
2021/03/05 22:27:34;;;;;;;8.63;3.90;;;-2.80;84.10;;;;;;4882672;29;20053;-89
2021/03/05 22:37:24;;;;;;;12.93;5.90;;;-2.90;84.20;;;;;;4882506;29;20409;-90
2021/03/05 22:43:12;;;;;;;10.60;4.53;;;-2.90;84.50;;;;;;4882761;29;20080;-91
2021/03/05 22:49:01;;;;;;;9.77;4.32;;;-3.00;84.10;;;;;;4882757;29;20063;-91
2021/03/05 22:54:49;;;;;;;12.05;5.45;;;-3.00;84.20;;;;;;4881907;29;20545;-90
2021/03/05 23:00:38;;;;;;;13.13;5.20;;;-3.10;84.20;;;;;;4882062;29;20081;-90
2021/03/05 23:06:26;;;;;;;11.93;5.22;;;-3.10;84.40;;;;;;4882127;29;20108;-91
2021/03/05 23:12:14;;;;;;;13.23;4.93;;;-3.20;84.20;;;;;;4882951;29;20031;-91
2021/03/05 23:18:05;;;;;;;11.77;5.22;;;-3.20;84.50;;;;;;4883636;29;20040;-92
2021/03/05 23:23:54;;;;;;;14.13;5.50;;;-3.30;84.40;;;;;;4882228;29;20039;-90
2021/03/05 23:29:43;;;;;;;11.98;5.43;;;-3.30;84.30;;;;;;4881784;29;20426;-89
2021/03/05 23:39:33;;;;;;;11.73;5.07;;;-3.40;84.20;;;;;;4881701;29;20532;-89
2021/03/05 23:45:39;;;;;;;9.65;4.55;;;-3.50;84.20;;;;;;4881494;29;20413;-89
2021/03/05 23:51:28;;;;;;;12.00;4.90;;;-3.60;84.30;;;;;;4881192;29;20161;-89
2021/03/05 23:57:16;;;;;;;10.43;4.07;;;-3.60;84.30;;;;;;4880989;29;20040;-89
